Time;durP1;ratioP1;P1;durP2;ratioP2;P2;SDS_P1;SDS_P2;PMS_P1;PMS_P2;Temp;Humidity;BMP_temperature;BMP_pressure;BME280_temperature;BME280_humidity;BME280_pressure;Samples;Min_cycle;Max_cycle;Signal;HPM_P1;HPM_P2
2022/12/15 00:39:29;;;;;;;32.47;19.05;;;-1.00;79.70;;;;;;5042247;28;20102;-77
2022/12/15 00:41:55;;;;;;;36.15;19.02;;;-1.00;79.80;;;;;;5042290;28;20495;-77
2022/12/15 00:44:22;;;;;;;37.97;19.85;;;-1.00;79.90;;;;;;5046012;28;20036;-76
2022/12/15 00:46:53;;;;;;;35.47;19.50;;;-1.00;80.00;;;;;;5041757;28;20034;-77
2022/12/15 01:22:37;;;;;;;35.28;19.67;;;-0.90;79.50;;;;;;5040194;28;20044;-77
2022/12/15 01:25:06;;;;;;;31.38;18.23;;;-0.90;79.30;;;;;;5046967;28;20476;-76
2022/12/15 01:27:32;;;;;;;43.47;20.52;;;-0.90;79.40;;;;;;5048082;28;20029;-77
2022/12/15 01:29:59;;;;;;;38.83;21.63;;;-0.90;79.40;;;;;;5045685;28;20045;-76
2022/12/15 01:32:26;;;;;;;38.30;20.38;;;-0.90;79.30;;;;;;5031385;28;20057;-76
2022/12/15 01:34:52;;;;;;;34.58;20.08;;;-0.90;79.40;;;;;;5037192;28;20107;-77
2022/12/15 01:37:18;;;;;;;35.88;20.02;;;-0.80;79.40;;;;;;5043325;28;20029;-76
2022/12/15 01:42:28;;;;;;;38.80;20.80;;;-0.80;79.60;;;;;;5042366;28;20511;-77
2022/12/15 01:45:22;;;;;;;34.65;18.88;;;-0.80;79.40;;;;;;5048309;28;20029;-76
2022/12/15 01:47:56;;;;;;;34.33;19.48;;;-0.90;79.30;;;;;;5026243;28;20034;-76
2022/12/15 01:50:23;;;;;;;33.53;19.52;;;-0.90;79.20;;;;;;5036929;28;20534;-77
2022/12/15 01:52:51;;;;;;;30.83;19.13;;;-0.90;79.40;;;;;;5042403;28;20029;-76
2022/12/15 01:55:19;;;;;;;32.45;19.88;;;-1.00;79.50;;;;;;5040590;28;20392;-76
2022/12/15 01:57:47;;;;;;;33.45;20.75;;;-1.00;79.80;;;;;;5048976;28;20055;-76
2022/12/15 02:00:13;;;;;;;38.60;19.08;;;-1.00;79.90;;;;;;5044650;28;20029;-77
2022/12/15 02:02:40;;;;;;;32.95;19.38;;;-1.00;80.00;;;;;;5045866;28;20079;-77
2022/12/15 02:05:07;;;;;;;34.55;19.85;;;-1.00;79.80;;;;;;5045288;28;20037;-77
2022/12/15 02:07:33;;;;;;;35.72;19.83;;;-1.00;79.80;;;;;;5046640;28;20514;-77
2022/12/15 02:10:02;;;;;;;39.00;20.52;;;-1.00;79.80;;;;;;5021820;28;20063;-76
2022/12/15 02:12:48;;;;;;;34.10;19.50;;;-1.00;79.90;;;;;;5048876;28;20029;-76
2022/12/15 02:15:26;;;;;;;35.47;21.17;;;-1.00;79.90;;;;;;5048602;28;20105;-76
2022/12/15 02:18:23;;;;;;;35.33;20.13;;;-1.00;79.90;;;;;;5051406;28;20500;-76
2022/12/15 02:21:14;;;;;;;42.42;19.77;;;-1.00;79.90;;;;;;5020810;28;20106;-76
2022/12/15 02:24:26;;;;;;;33.80;18.95;;;-1.00;79.70;;;;;;5041864;28;20040;-78
2022/12/15 02:27:29;;;;;;;29.88;17.95;;;-1.00;79.70;;;;;;5017992;28;20052;-76
2022/12/15 02:30:22;;;;;;;34.30;19.13;;;-1.00;79.50;;;;;;5040089;28;20045;-76
2022/12/15 02:33:35;;;;;;;34.10;20.02;;;-1.00;79.50;;;;;;5037258;28;20029;-74
2022/12/15 02:36:17;;;;;;;30.30;17.10;;;-1.00;79.60;;;;;;5025799;28;20041;-77
2022/12/15 02:38:43;;;;;;;34.25;19.55;;;-1.00;79.70;;;;;;5045369;28;20044;-77
2022/12/15 02:41:39;;;;;;;31.85;17.92;;;-1.00;79.60;;;;;;5020598;28;20025;-77
2022/12/15 02:44:11;;;;;;;31.60;17.30;;;-1.00;79.60;;;;;;5044302;28;20032;-76
2022/12/15 02:47:10;;;;;;;31.30;17.60;;;-0.90;79.50;;;;;;5046965;28;20032;-76
2022/12/15 02:49:45;;;;;;;32.45;18.85;;;-1.00;79.30;;;;;;5036238;28;20425;-76
2022/12/15 02:52:36;;;;;;;46.83;19.10;;;-1.00;79.30;;;;;;5036403;28;20061;-77
2022/12/15 02:55:04;;;;;;;34.00;19.15;;;-1.00;79.50;;;;;;5040961;28;20029;-76
2022/12/15 02:57:50;;;;;;;37.35;19.73;;;-1.00;79.60;;;;;;5034495;28;20056;-76
2022/12/15 03:00:16;;;;;;;30.30;18.55;;;-1.10;79.50;;;;;;5048356;28;20029;-75
2022/12/15 03:02:47;;;;;;;34.28;18.50;;;-1.10;79.50;;;;;;5043839;28;20036;-75
2022/12/15 03:05:13;;;;;;;26.85;16.05;;;-1.10;79.60;;;;;;5044064;28;20071;-77
2022/12/15 03:07:41;;;;;;;31.38;16.58;;;-1.10;79.60;;;;;;5037794;28;20021;-77
2022/12/15 03:10:09;;;;;;;27.75;17.15;;;-1.10;79.60;;;;;;5025904;28;20118;-78
2022/12/15 03:12:35;;;;;;;29.65;17.88;;;-1.10;79.50;;;;;;5038326;28;20040;-76
2022/12/15 03:15:02;;;;;;;29.77;17.10;;;-1.10;79.50;;;;;;5030427;28;20033;-76
2022/12/15 03:17:27;;;;;;;34.55;17.60;;;-1.20;79.30;;;;;;5045783;28;20021;-77
2022/12/15 03:19:53;;;;;;;32.15;17.52;;;-1.10;79.30;;;;;;5045191;28;20029;-75
2022/12/15 03:22:19;;;;;;;31.75;18.08;;;-1.20;79.10;;;;;;5041973;28;20036;-77
2022/12/15 03:24:44;;;;;;;30.60;17.17;;;-1.20;79.00;;;;;;5027300;28;20055;-75
2022/12/15 03:27:11;;;;;;;30.17;16.55;;;-1.20;79.10;;;;;;5037976;28;20527;-76
2022/12/15 03:29:37;;;;;;;32.47;16.77;;;-1.20;79.10;;;;;;5036297;28;20029;-76
2022/12/15 03:32:03;;;;;;;29.40;17.15;;;-1.20;79.00;;;;;;5044022;28;20022;-76
2022/12/15 03:34:29;;;;;;;29.83;17.35;;;-1.20;79.10;;;;;;5024741;28;20032;-77
2022/12/15 03:36:56;;;;;;;33.22;17.58;;;-1.20;79.10;;;;;;5038450;28;20021;-75
2022/12/15 03:39:21;;;;;;;29.13;17.15;;;-1.20;79.00;;;;;;5046553;28;20037;-76
2022/12/15 03:41:47;;;;;;;34.58;16.92;;;-1.20;79.00;;;;;;5024517;28;20037;-77
2022/12/15 03:44:12;;;;;;;35.42;18.00;;;-1.20;79.00;;;;;;5040692;28;20028;-76
2022/12/15 03:46:38;;;;;;;28.55;17.30;;;-1.20;79.20;;;;;;5048352;28;20017;-76
2022/12/15 03:49:04;;;;;;;32.75;17.23;;;-1.20;79.40;;;;;;5047319;28;20031;-78
2022/12/15 03:51:30;;;;;;;31.50;17.38;;;-1.20;79.50;;;;;;5049203;28;20118;-75
2022/12/15 03:53:57;;;;;;;32.15;16.63;;;-1.20;79.60;;;;;;5039889;28;20037;-76
2022/12/15 03:56:24;;;;;;;30.02;18.48;;;-1.20;79.50;;;;;;5031339;28;20479;-77
2022/12/15 03:58:50;;;;;;;38.53;17.92;;;-1.30;79.30;;;;;;5042773;28;20033;-77
2022/12/15 04:01:27;;;;;;;33.13;18.42;;;-1.30;79.30;;;;;;5047238;28;20074;-77
2022/12/15 04:03:54;;;;;;;31.98;17.80;;;-1.20;79.40;;;;;;5040206;28;20095;-77
2022/12/15 04:06:22;;;;;;;33.10;16.83;;;-1.20;79.40;;;;;;5043747;28;20040;-76
2022/12/15 04:08:49;;;;;;;32.20;17.60;;;-1.20;79.40;;;;;;5042649;28;20095;-77
2022/12/15 04:11:15;;;;;;;32.22;17.60;;;-1.20;79.50;;;;;;5042802;28;20159;-77
2022/12/15 04:13:40;;;;;;;31.88;17.75;;;-1.20;79.60;;;;;;5043645;28;20129;-75
2022/12/15 04:16:07;;;;;;;31.60;18.75;;;-1.20;79.70;;;;;;5038199;28;20037;-75
2022/12/15 04:18:32;;;;;;;32.38;18.52;;;-1.20;79.50;;;;;;5041323;28;20104;-76
2022/12/15 04:20:58;;;;;;;37.25;18.73;;;-1.20;79.50;;;;;;5046883;28;20106;-77
2022/12/15 04:23:24;;;;;;;32.92;18.52;;;-1.20;79.40;;;;;;5037665;28;20029;-77
2022/12/15 05:32:01;;;;;;;46.90;23.63;;;-1.40;79.20;;;;;;5045322;28;20557;-76
2022/12/15 05:34:29;;;;;;;31.67;20.35;;;-1.40;79.20;;;;;;5049763;28;20059;-77
2022/12/15 05:36:56;;;;;;;35.20;18.70;;;-1.30;79.20;;;;;;5043600;28;20076;-78
2022/12/15 05:39:23;;;;;;;32.30;19.08;;;-1.30;79.20;;;;;;5047169;28;20048;-76
2022/12/15 05:41:50;;;;;;;33.90;17.75;;;-1.30;79.00;;;;;;5034910;28;20408;-76
2022/12/15 05:44:16;;;;;;;32.65;19.38;;;-1.30;78.80;;;;;;5054661;28;20025;-76
2022/12/15 05:46:43;;;;;;;37.30;20.05;;;-1.30;78.70;;;;;;5015855;28;20369;-76
2022/12/15 05:49:13;;;;;;;45.75;20.80;;;-1.30;78.60;;;;;;5033687;28;20028;-77
2022/12/15 05:51:41;;;;;;;37.28;20.35;;;-1.30;78.70;;;;;;5041317;28;20492;-77
2022/12/15 05:54:08;;;;;;;32.75;18.48;;;-1.30;78.70;;;;;;5050595;28;20640;-76
2022/12/15 05:56:35;;;;;;;33.67;21.00;;;-1.40;78.70;;;;;;5045192;28;20408;-76
2022/12/15 05:59:04;;;;;;;34.03;18.98;;;-1.40;78.70;;;;;;5059363;28;20619;-77
2022/12/15 06:01:30;;;;;;;30.77;18.75;;;-1.40;78.80;;;;;;5039124;28;20029;-77
2022/12/15 06:03:57;;;;;;;36.05;20.17;;;-1.50;78.80;;;;;;5041244;28;20025;-76
2022/12/15 06:06:23;;;;;;;44.08;21.40;;;-1.40;78.90;;;;;;5052715;28;20025;-76
2022/12/15 06:08:49;;;;;;;30.48;18.60;;;-1.40;78.90;;;;;;5030403;28;21213;-75
2022/12/15 06:11:19;;;;;;;34.15;20.13;;;-1.40;79.00;;;;;;5034432;28;20246;-77
2022/12/15 06:13:45;;;;;;;33.80;18.63;;;-1.50;78.90;;;;;;5035450;28;20514;-77
2022/12/15 06:16:19;;;;;;;36.80;19.50;;;-1.50;79.10;;;;;;5038084;28;20106;-76
2022/12/15 06:18:51;;;;;;;39.70;21.08;;;-1.50;79.00;;;;;;5051791;28;20029;-76
2022/12/15 06:21:19;;;;;;;38.85;20.30;;;-1.50;79.20;;;;;;5051563;28;20033;-77
2022/12/15 06:23:45;;;;;;;38.65;21.05;;;-1.50;79.40;;;;;;5036103;28;20503;-77
2022/12/15 06:26:20;;;;;;;35.95;20.50;;;-1.50;79.50;;;;;;5030113;28;20021;-77
2022/12/15 06:28:47;;;;;;;39.75;21.75;;;-1.50;79.70;;;;;;5040305;28;20033;-76
2022/12/15 06:31:15;;;;;;;42.63;21.77;;;-1.50;79.80;;;;;;5042120;28;20213;-77
2022/12/15 06:33:41;;;;;;;44.30;23.45;;;-1.50;79.90;;;;;;5045368;28;20025;-76
2022/12/15 06:36:11;;;;;;;49.50;25.80;;;-1.50;80.00;;;;;;5052468;28;20487;-75
2022/12/15 06:38:41;;;;;;;58.83;27.85;;;-1.50;80.00;;;;;;5047903;28;20024;-77
2022/12/15 06:41:06;;;;;;;33.50;21.02;;;-1.50;80.10;;;;;;5050016;28;20809;-76
2022/12/15 06:43:33;;;;;;;41.95;21.70;;;-1.50;80.20;;;;;;5034813;28;20063;-76
2022/12/15 06:45:59;;;;;;;37.92;21.13;;;-1.50;80.40;;;;;;5040582;28;20025;-76
2022/12/15 06:48:26;;;;;;;44.42;22.70;;;-1.50;80.40;;;;;;5046642;28;20029;-77
2022/12/15 06:50:52;;;;;;;42.53;22.67;;;-1.50;80.30;;;;;;5036204;28;20133;-78
2022/12/15 06:53:20;;;;;;;38.85;22.15;;;-1.40;80.30;;;;;;5045867;28;20469;-75
2022/12/15 06:55:46;;;;;;;40.83;22.38;;;-1.40;80.10;;;;;;5040968;28;20033;-77
2022/12/15 06:58:12;;;;;;;44.70;22.70;;;-1.40;79.90;;;;;;5026921;28;20396;-76
2022/12/15 07:00:40;;;;;;;44.88;24.35;;;-1.40;80.00;;;;;;5036631;28;20029;-77
2022/12/15 07:03:08;;;;;;;54.20;27.17;;;-1.40;80.00;;;;;;5032365;28;20028;-75
2022/12/15 07:05:34;;;;;;;39.88;23.08;;;-1.30;79.80;;;;;;5038263;28;20544;-75
2022/12/15 07:08:00;;;;;;;43.65;24.48;;;-1.40;79.60;;;;;;5049052;28;20021;-75
2022/12/15 07:10:26;;;;;;;45.15;24.13;;;-1.30;79.70;;;;;;5049135;28;20732;-76
2022/12/15 07:12:55;;;;;;;46.03;23.77;;;-1.40;80.20;;;;;;5042882;28;20053;-75
2022/12/15 07:15:21;;;;;;;51.13;24.63;;;-1.30;79.90;;;;;;5041883;28;20021;-76
2022/12/15 07:17:46;;;;;;;47.35;24.13;;;-1.30;79.80;;;;;;5043402;28;20027;-76
2022/12/15 07:20:13;;;;;;;53.22;26.33;;;-1.30;79.60;;;;;;5026299;28;20495;-76
2022/12/15 07:22:39;;;;;;;46.70;24.42;;;-1.30;79.40;;;;;;5042665;28;20021;-77
2022/12/15 07:25:05;;;;;;;39.55;23.52;;;-1.30;79.50;;;;;;5049692;28;20009;-76
2022/12/15 07:27:31;;;;;;;42.63;23.77;;;-1.30;80.20;;;;;;5038945;28;20517;-76
2022/12/15 07:29:57;;;;;;;40.30;22.05;;;-1.30;79.40;;;;;;5042619;28;20038;-75
2022/12/15 07:32:22;;;;;;;44.75;23.77;;;-1.20;79.20;;;;;;5022589;28;20920;-76
2022/12/15 07:34:48;;;;;;;47.67;25.95;;;-1.30;78.90;;;;;;5046132;28;20086;-75
2022/12/15 07:37:14;;;;;;;47.25;24.90;;;-1.30;79.00;;;;;;5030959;28;20391;-76
2022/12/15 07:39:40;;;;;;;48.72;23.98;;;-1.20;78.90;;;;;;5037778;28;21466;-77
2022/12/15 07:42:06;;;;;;;43.97;23.67;;;-1.20;78.90;;;;;;5031213;28;20052;-76
2022/12/15 07:44:32;;;;;;;37.53;21.63;;;-1.20;79.00;;;;;;5047383;28;20024;-78
2022/12/15 07:46:57;;;;;;;43.22;22.15;;;-1.20;79.00;;;;;;5050176;28;20025;-77
2022/12/15 07:49:23;;;;;;;36.88;20.73;;;-1.20;79.00;;;;;;5052919;28;20099;-76
2022/12/15 07:51:49;;;;;;;39.35;21.25;;;-1.20;79.50;;;;;;5049426;28;20021;-76
2022/12/15 07:54:16;;;;;;;38.15;21.23;;;-1.20;80.60;;;;;;5032500;28;20022;-77
2022/12/15 07:56:45;;;;;;;37.70;22.90;;;-1.10;80.40;;;;;;5030288;28;20056;-77
2022/12/15 07:59:11;;;;;;;41.70;22.85;;;-1.10;81.00;;;;;;5052726;28;20031;-76
2022/12/15 08:01:36;;;;;;;37.00;21.80;;;-1.10;80.50;;;;;;5031972;28;20107;-76
2022/12/15 08:04:03;;;;;;;46.83;25.33;;;-1.10;80.20;;;;;;5050877;28;20067;-75
2022/12/15 08:06:31;;;;;;;51.97;26.15;;;-1.10;80.10;;;;;;5036417;28;20021;-76
2022/12/15 08:08:57;;;;;;;39.83;22.60;;;-1.10;80.00;;;;;;5050046;28;20104;-76
2022/12/15 08:11:24;;;;;;;47.75;24.63;;;-1.00;80.90;;;;;;5045942;28;20079;-76
2022/12/15 08:13:51;;;;;;;47.63;24.00;;;-1.00;80.60;;;;;;5050956;28;20045;-77
2022/12/15 08:16:18;;;;;;;50.38;26.83;;;-1.10;80.50;;;;;;5047742;28;20048;-76
2022/12/15 08:18:47;;;;;;;48.47;25.67;;;-1.00;80.60;;;;;;5046178;28;20029;-77
2022/12/15 08:21:20;;;;;;;46.30;24.90;;;-1.00;80.60;;;;;;5039494;28;20091;-78
2022/12/15 08:23:46;;;;;;;46.25;24.95;;;-1.00;80.50;;;;;;5031186;28;20041;-77
2022/12/15 08:26:15;;;;;;;43.05;23.85;;;-1.00;80.50;;;;;;5041736;28;20033;-77
2022/12/15 08:28:41;;;;;;;43.97;24.42;;;-1.00;80.60;;;;;;5041844;28;20155;-75
2022/12/15 08:31:09;;;;;;;63.92;28.92;;;-0.90;80.60;;;;;;5054474;28;20052;-76
2022/12/15 08:33:35;;;;;;;40.55;22.88;;;-0.80;80.50;;;;;;5047292;28;20021;-76
2022/12/15 08:36:04;;;;;;;42.00;25.17;;;-0.80;80.40;;;;;;5037669;28;20083;-77
2022/12/15 08:38:34;;;;;;;47.10;28.25;;;-0.70;80.50;;;;;;5048918;28;20056;-77
2022/12/15 08:41:16;;;;;;;35.78;22.73;;;-0.20;79.90;;;;;;5051468;28;20017;-76
2022/12/15 08:43:43;;;;;;;36.90;21.60;;;0.70;77.70;;;;;;5003548;28;20022;-78
2022/12/15 08:46:11;;;;;;;43.25;21.25;;;1.60;73.70;;;;;;5033954;28;20021;-77
2022/12/15 08:48:37;;;;;;;34.95;21.98;;;1.90;70.60;;;;;;5029380;28;20017;-76
2022/12/15 08:51:03;;;;;;;42.03;22.70;;;1.60;71.00;;;;;;5050525;28;20040;-77
2022/12/15 08:53:29;;;;;;;34.10;21.73;;;1.30;72.00;;;;;;5050201;28;20013;-77
2022/12/15 08:56:08;;;;;;;36.80;21.48;;;1.30;73.40;;;;;;5045848;28;20365;-75
2022/12/15 08:58:34;;;;;;;35.08;22.48;;;2.00;72.10;;;;;;5040327;28;20026;-77
2022/12/15 09:01:05;;;;;;;33.30;18.73;;;3.00;69.00;;;;;;5042230;28;20508;-76
2022/12/15 09:03:32;;;;;;;37.08;22.42;;;3.90;66.60;;;;;;5040808;28;20049;-76
2022/12/15 09:06:16;;;;;;;33.85;21.73;;;4.40;63.00;;;;;;5045841;28;20120;-75
2022/12/15 09:08:42;;;;;;;33.90;22.02;;;5.00;61.20;;;;;;5042999;28;20025;-76
2022/12/15 09:11:07;;;;;;;31.10;20.98;;;5.70;58.80;;;;;;5043920;28;20033;-75
2022/12/15 09:13:33;;;;;;;34.83;22.65;;;6.30;57.00;;;;;;5046498;28;20107;-77
2022/12/15 09:16:00;;;;;;;33.05;21.85;;;6.60;55.70;;;;;;5047161;28;20074;-75
2022/12/15 09:18:26;;;;;;;38.72;20.80;;;6.80;54.90;;;;;;5036000;28;20021;-76
2022/12/15 09:20:52;;;;;;;32.70;21.65;;;6.90;54.60;;;;;;5034390;28;20025;-76
2022/12/15 09:23:19;;;;;;;34.70;23.15;;;7.10;54.40;;;;;;5032676;28;20434;-76
2022/12/15 09:25:45;;;;;;;34.95;22.27;;;7.20;54.00;;;;;;5040446;28;20031;-77
2022/12/15 09:28:12;;;;;;;31.77;22.40;;;7.30;53.70;;;;;;5053392;28;20017;-75
2022/12/15 09:30:37;;;;;;;32.33;22.08;;;7.50;54.80;;;;;;5030227;28;20043;-76
2022/12/15 09:33:05;;;;;;;30.45;21.92;;;7.70;53.50;;;;;;5044061;28;20021;-75
2022/12/15 09:35:30;;;;;;;33.38;22.02;;;7.80;52.70;;;;;;5049332;28;20017;-77
2022/12/15 09:37:57;;;;;;;31.90;22.13;;;7.90;53.60;;;;;;5039404;28;20024;-76
2022/12/15 09:40:24;;;;;;;33.08;21.85;;;7.90;52.70;;;;;;5045153;28;20033;-76
2022/12/15 09:42:55;;;;;;;37.85;23.27;;;8.10;52.90;;;;;;5047128;28;20025;-78
2022/12/15 09:45:22;;;;;;;;;;;8.00;51.50;;;;;;5046693;28;20056;-77
2022/12/15 09:48:08;;;;;;;32.58;21.45;;;8.10;51.90;;;;;;5045869;28;20027;-76
2022/12/15 09:50:39;;;;;;;33.28;21.95;;;8.40;51.90;;;;;;5046279;28;20475;-76
2022/12/15 09:53:11;;;;;;;32.65;22.15;;;8.50;51.30;;;;;;5052803;28;20035;-75
2022/12/15 09:55:41;;;;;;;30.65;21.90;;;8.60;51.10;;;;;;5038989;28;20025;-76
2022/12/15 09:58:18;;;;;;;;;;;8.70;51.10;;;;;;5048817;28;20083;-75
2022/12/15 10:00:58;;;;;;;34.40;23.52;;;9.00;50.30;;;;;;5042767;28;19909;-76
2022/12/15 10:03:48;;;;;;;28.02;19.27;;;9.10;49.90;;;;;;5053654;28;20025;-76
2022/12/15 10:06:17;;;;;;;30.67;20.98;;;9.00;50.10;;;;;;5052772;28;20018;-75
2022/12/15 10:09:07;;;;;;;34.78;22.35;;;9.10;50.40;;;;;;5045671;28;20025;-74
2022/12/15 10:11:43;;;;;;;33.65;23.00;;;9.20;50.80;;;;;;5045456;28;20049;-74
2022/12/15 10:14:18;;;;;;;28.75;20.83;;;9.30;49.20;;;;;;5051722;28;20128;-74
2022/12/15 10:17:15;;;;;;;30.35;22.67;;;9.30;49.60;;;;;;5041912;28;20627;-74
2022/12/15 10:19:54;;;;;;;29.17;19.98;;;9.30;49.50;;;;;;5050756;28;20036;-73
2022/12/15 10:22:38;;;;;;;31.58;21.35;;;9.50;50.60;;;;;;5049593;28;20394;-73
2022/12/15 10:25:14;;;;;;;30.23;21.13;;;9.50;50.90;;;;;;5036737;28;20021;-73
2022/12/15 10:28:04;;;;;;;36.85;24.33;;;9.40;50.00;;;;;;5037894;28;20029;-75
2022/12/15 10:30:30;;;;;;;32.92;21.52;;;9.30;50.00;;;;;;5049971;28;20028;-75
2022/12/15 10:33:15;;;;;;;29.42;20.20;;;9.50;50.00;;;;;;5040268;28;20092;-74
2022/12/15 10:35:42;;;;;;;34.45;22.05;;;9.60;50.30;;;;;;5032067;28;20021;-73
2022/12/15 10:38:36;;;;;;;30.73;21.90;;;9.50;50.10;;;;;;5051834;28;20029;-74
2022/12/15 10:41:04;;;;;;;24.73;15.77;;;9.60;50.30;;;;;;5039498;28;20801;-72
2022/12/15 10:43:35;;;;;;;28.95;21.42;;;9.90;60.60;;;;;;5046080;28;20052;-75
2022/12/15 10:46:26;;;;;;;29.58;20.63;;;9.90;51.70;;;;;;5042004;28;20017;-74
2022/12/15 10:49:21;;;;;;;33.13;20.67;;;9.90;50.60;;;;;;5024184;28;20056;-74
2022/12/15 10:51:59;;;;;;;31.15;22.77;;;9.90;50.20;;;;;;5046154;28;20391;-75
2022/12/15 10:54:42;;;;;;;26.52;18.65;;;9.90;49.80;;;;;;5046269;28;20028;-72
2022/12/15 10:57:23;;;;;;;31.63;20.83;;;10.00;53.40;;;;;;5041112;28;20033;-75
2022/12/15 10:59:49;;;;;;;31.77;23.95;;;9.70;57.00;;;;;;5049481;28;20025;-74
2022/12/15 11:02:24;;;;;;;29.10;20.75;;;9.60;51.20;;;;;;5032144;28;20059;-74
2022/12/15 11:04:57;;;;;;;32.90;22.60;;;10.00;51.60;;;;;;5038099;28;20028;-74
2022/12/15 11:07:32;;;;;;;26.95;18.52;;;10.30;50.20;;;;;;5049383;28;20566;-75
2022/12/15 11:10:01;;;;;;;31.55;21.85;;;10.50;51.20;;;;;;5051018;28;20025;-75
2022/12/15 11:15:23;;;;;;;28.48;18.83;;;10.60;50.70;;;;;;5038039;28;20556;-74
2022/12/15 11:18:03;;;;;;;27.10;19.73;;;10.50;52.80;;;;;;5029424;28;20148;-75
2022/12/15 11:20:37;;;;;;;29.85;21.20;;;10.40;53.30;;;;;;5035351;28;20025;-74
2022/12/15 11:23:29;;;;;;;28.30;21.35;;;10.40;51.40;;;;;;5045998;28;20020;-75
2022/12/15 11:25:57;;;;;;;32.63;22.42;;;10.50;50.70;;;;;;5024485;28;20040;-76
2022/12/15 11:28:48;;;;;;;26.48;19.17;;;10.60;50.20;;;;;;5041564;28;20115;-75
2022/12/15 11:31:46;;;;;;;31.88;22.45;;;10.60;50.10;;;;;;5042970;28;20035;-75
2022/12/15 11:34:14;;;;;;;29.77;21.05;;;10.70;51.90;;;;;;5011759;28;20049;-73
2022/12/15 11:37:13;;;;;;;26.80;19.38;;;10.90;50.50;;;;;;5042373;28;20130;-74
2022/12/15 11:40:16;;;;;;;26.85;20.85;;;11.10;50.00;;;;;;5042717;28;20079;-73
2022/12/15 11:42:51;;;;;;;28.95;21.02;;;11.10;50.10;;;;;;5048463;28;20029;-73
2022/12/15 11:45:35;;;;;;;32.05;21.40;;;11.30;49.40;;;;;;5045811;28;20025;-73
2022/12/15 11:48:13;;;;;;;27.73;20.92;;;11.30;51.30;;;;;;5029442;28;20021;-74
2022/12/15 11:51:03;;;;;;;29.85;19.00;;;11.20;52.90;;;;;;5042695;28;20040;-74
2022/12/15 11:53:41;;;;;;;23.42;16.65;;;11.30;53.00;;;;;;5030721;28;20112;-74
2022/12/15 11:56:32;;;;;;;32.85;21.55;;;11.10;54.90;;;;;;5048610;28;20029;-74
2022/12/15 11:59:16;;;;;;;33.08;22.40;;;11.00;52.00;;;;;;5048128;28;20107;-74
2022/12/15 12:02:13;;;;;;;28.00;20.75;;;11.10;50.50;;;;;;5035739;28;20055;-74
2022/12/15 12:04:51;;;;;;;26.42;19.90;;;11.20;50.70;;;;;;5046697;28;20118;-74
2022/12/15 12:07:40;;;;;;;32.78;21.20;;;11.50;50.10;;;;;;5045904;28;20025;-73
2022/12/15 12:10:35;;;;;;;38.03;22.75;;;11.60;49.40;;;;;;5044593;28;20471;-74
2022/12/15 12:13:28;;;;;;;30.98;21.70;;;11.70;48.80;;;;;;5042971;28;20049;-74
2022/12/15 12:16:21;;;;;;;24.95;18.13;;;11.80;49.70;;;;;;5036348;28;20025;-73
2022/12/15 12:19:08;;;;;;;26.10;13.98;;;11.60;53.70;;;;;;5035848;28;20036;-73
2022/12/15 12:21:45;;;;;;;30.15;22.83;;;10.90;73.80;;;;;;5043364;28;20028;-74
2022/12/15 12:24:32;;;;;;;27.77;19.05;;;10.30;61.80;;;;;;5030180;28;20030;-74
2022/12/15 12:27:27;;;;;;;25.67;19.00;;;9.70;57.70;;;;;;5039859;28;20037;-73
2022/12/15 12:30:00;;;;;;;34.63;22.67;;;9.30;57.70;;;;;;5025854;28;20418;-74
2022/12/15 12:32:36;;;;;;;27.60;20.05;;;9.00;58.60;;;;;;5022014;28;20044;-74
2022/12/15 12:35:11;;;;;;;36.58;24.67;;;9.20;58.00;;;;;;5048179;28;20108;-74
2022/12/15 12:37:43;;;;;;;35.20;23.33;;;9.60;56.20;;;;;;5038302;28;20025;-74
2022/12/15 12:40:18;;;;;;;30.33;22.77;;;9.60;55.60;;;;;;5046546;28;20083;-74
2022/12/15 12:42:52;;;;;;;26.02;18.52;;;9.80;58.10;;;;;;5041893;28;20032;-74
2022/12/15 12:45:20;;;;;;;29.08;22.05;;;9.80;58.00;;;;;;5029506;28;20025;-73
2022/12/15 12:47:51;;;;;;;35.38;22.25;;;9.50;55.90;;;;;;5046567;28;20129;-74
2022/12/15 12:50:23;;;;;;;26.15;18.85;;;9.20;56.80;;;;;;5040876;28;20063;-74
2022/12/15 12:52:59;;;;;;;31.83;22.88;;;8.90;65.10;;;;;;5042150;28;20153;-74
2022/12/15 12:55:26;;;;;;;28.02;19.90;;;8.70;59.10;;;;;;5027702;28;20025;-73
2022/12/15 12:57:53;;;;;;;32.30;22.75;;;8.80;61.90;;;;;;5044075;28;20036;-75
2022/12/15 13:00:30;;;;;;;31.17;21.48;;;9.30;60.60;;;;;;5021138;28;20037;-74
2022/12/15 13:03:16;;;;;;;33.53;21.65;;;9.80;58.40;;;;;;5050231;28;20043;-72
2022/12/15 13:05:45;;;;;;;30.15;21.33;;;10.30;55.10;;;;;;5048204;28;20056;-73
2022/12/15 13:08:13;;;;;;;31.58;22.73;;;10.70;56.20;;;;;;5048007;28;20018;-73
2022/12/15 13:10:44;;;;;;;31.77;21.48;;;10.90;53.70;;;;;;5053695;28;20140;-73
2022/12/15 13:13:43;;;;;;;28.42;20.05;;;10.60;53.90;;;;;;5047590;28;20048;-73
2022/12/15 13:16:24;;;;;;;32.30;19.40;;;9.90;55.40;;;;;;5021183;28;20013;-73
2022/12/15 13:19:03;;;;;;;31.80;22.00;;;9.30;65.00;;;;;;5046469;28;20040;-73
2022/12/15 13:21:44;;;;;;;31.38;23.25;;;8.80;59.90;;;;;;5039376;28;20111;-73
2022/12/15 13:24:45;;;;;;;31.50;23.60;;;8.40;58.40;;;;;;5040915;28;20029;-74
2022/12/15 13:27:14;;;;;;;35.13;25.73;;;8.10;58.60;;;;;;5048711;28;20162;-73
2022/12/15 13:30:16;;;;;;;32.85;22.45;;;7.80;58.70;;;;;;5050611;28;20036;-74
2022/12/15 13:32:50;;;;;;;36.13;24.70;;;7.60;60.20;;;;;;4969199;28;20106;-75
2022/12/15 13:35:24;;;;;;;34.10;23.63;;;7.50;61.30;;;;;;5019975;28;20068;-73
2022/12/15 13:37:55;;;;;;;34.75;25.60;;;7.40;63.50;;;;;;5045121;28;20074;-75
2022/12/15 13:40:32;;;;;;;40.22;27.80;;;7.40;61.60;;;;;;5050170;28;20074;-73
2022/12/15 13:43:07;;;;;;;32.33;25.35;;;7.20;61.30;;;;;;5045837;28;20029;-73
2022/12/15 13:45:54;;;;;;;38.33;26.67;;;7.00;62.00;;;;;;5045965;28;20021;-73
2022/12/15 13:48:23;;;;;;;36.53;24.38;;;7.00;67.40;;;;;;5045907;28;20558;-72
2022/12/15 13:51:02;;;;;;;35.47;24.50;;;7.30;63.40;;;;;;5043457;28;20434;-73
2022/12/15 13:53:36;;;;;;;31.70;22.90;;;7.70;64.30;;;;;;5042725;28;20467;-73
2022/12/15 13:56:11;;;;;;;41.28;26.50;;;7.90;62.10;;;;;;5033908;28;20395;-73
2022/12/15 13:58:43;;;;;;;38.10;26.35;;;7.90;60.50;;;;;;5035301;28;20085;-73
2022/12/15 14:01:27;;;;;;;39.88;26.63;;;8.10;60.30;;;;;;5030188;28;20028;-74
2022/12/15 14:04:14;;;;;;;45.03;27.25;;;8.10;59.70;;;;;;5044718;28;20687;-72
2022/12/15 14:06:53;;;;;;;33.15;25.20;;;7.90;59.00;;;;;;5039740;28;20026;-73
2022/12/15 14:09:26;;;;;;;41.28;26.35;;;7.70;59.50;;;;;;5043681;28;20279;-73
2022/12/15 14:11:55;;;;;;;39.53;26.00;;;7.50;60.20;;;;;;5051114;28;20134;-74
2022/12/15 14:14:31;;;;;;;41.60;28.00;;;7.50;60.30;;;;;;5048343;28;20126;-74
2022/12/15 14:17:12;;;;;;;38.78;26.88;;;7.60;60.60;;;;;;5049786;28;20025;-73
2022/12/15 14:19:47;;;;;;;45.47;27.02;;;7.50;59.90;;;;;;5048093;28;20151;-73
2022/12/15 14:22:25;;;;;;;62.13;34.75;;;7.40;60.20;;;;;;5052084;28;20028;-74
2022/12/15 14:24:57;;;;;;;53.60;32.05;;;7.20;60.70;;;;;;5030371;28;20083;-73
2022/12/15 14:27:31;;;;;;;42.97;27.75;;;7.00;61.40;;;;;;5039429;28;20057;-73
2022/12/15 14:30:17;;;;;;;39.08;25.67;;;6.70;62.20;;;;;;5040290;28;20029;-73
2022/12/15 14:32:44;;;;;;;38.72;24.55;;;6.50;62.90;;;;;;5053795;28;20029;-74
2022/12/15 14:35:36;;;;;;;39.70;26.60;;;6.30;63.90;;;;;;5051047;28;20022;-73
2022/12/15 14:38:06;;;;;;;46.15;31.92;;;6.10;64.50;;;;;;5039591;28;20044;-73
2022/12/15 14:40:36;;;;;;;35.95;25.80;;;5.90;65.30;;;;;;5051722;28;20032;-72
2022/12/15 14:43:03;;;;;;;58.10;31.45;;;5.80;65.80;;;;;;5053867;28;20032;-73
2022/12/15 14:45:31;;;;;;;50.03;31.13;;;5.60;66.00;;;;;;5048123;28;20013;-73
2022/12/15 14:48:05;;;;;;;40.05;28.63;;;5.50;66.60;;;;;;5026931;28;20381;-73
2022/12/15 14:50:31;;;;;;;46.65;29.63;;;5.50;67.70;;;;;;5031615;28;20040;-72
2022/12/15 14:53:03;;;;;;;46.03;32.28;;;5.40;67.80;;;;;;5026913;28;20017;-75
2022/12/15 14:55:38;;;;;;;45.47;32.25;;;5.30;69.10;;;;;;5043751;28;20047;-74
2022/12/15 14:58:25;;;;;;;50.50;32.92;;;5.30;68.70;;;;;;5045523;28;20052;-74
2022/12/15 15:00:53;;;;;;;44.28;31.13;;;5.20;68.90;;;;;;5034037;28;20036;-72
2022/12/15 15:03:22;;;;;;;39.53;27.83;;;5.20;69.00;;;;;;5040019;28;20017;-74
2022/12/15 15:05:54;;;;;;;43.20;27.52;;;5.10;69.10;;;;;;5052848;28;20032;-75
2022/12/15 15:08:25;;;;;;;42.85;27.38;;;5.00;70.40;;;;;;5048789;28;20488;-73
2022/12/15 15:10:56;;;;;;;43.33;29.42;;;4.90;70.10;;;;;;5028717;28;20449;-74
2022/12/15 15:13:26;;;;;;;46.95;30.60;;;4.80;70.30;;;;;;5051811;28;20091;-74
2022/12/15 15:15:53;;;;;;;;;;;4.80;72.30;;;;;;5048327;28;20079;-73
2022/12/15 15:18:24;;;;;;;46.00;31.35;;;4.80;71.60;;;;;;5046670;28;19908;-75
2022/12/15 15:21:03;;;;;;;47.83;30.35;;;4.80;70.90;;;;;;5043667;28;20021;-73
2022/12/15 15:23:30;;;;;;;47.13;32.28;;;4.70;71.00;;;;;;5046898;28;20104;-74